createdAt,value
2018-09-10T00:00:31.476Z,12.62
2018-09-10T00:05:36.238Z,12.60
2018-09-10T00:08:05.306Z,12.56
2018-09-10T00:10:34.365Z,12.66
2018-09-10T00:13:03.557Z,12.79
2018-09-10T00:18:11.950Z,12.65
2018-09-10T00:20:41.951Z,12.70
2018-09-10T00:23:11.018Z,12.67
2018-09-10T00:25:40.068Z,12.64
2018-09-10T00:28:09.116Z,12.55
2018-09-10T00:30:38.184Z,12.49
2018-09-10T00:33:07.247Z,12.53
2018-09-10T00:35:36.437Z,12.60
2018-09-10T00:38:05.596Z,12.62
2018-09-10T00:40:36.617Z,12.58
2018-09-10T00:43:14.085Z,12.60
2018-09-10T00:45:44.104Z,12.65
2018-09-10T00:48:13.183Z,12.70
2018-09-10T00:50:42.265Z,12.64
2018-09-10T00:55:47.252Z,12.59
2018-09-10T00:58:16.304Z,12.51
2018-09-10T01:03:21.141Z,12.54
2018-09-10T01:05:52.177Z,12.57
2018-09-10T01:08:21.224Z,12.62
2018-09-10T01:10:50.293Z,12.58
2018-09-10T01:13:19.352Z,12.48
2018-09-10T01:15:48.421Z,12.39
2018-09-10T01:18:17.457Z,12.48
2018-09-10T01:20:50.134Z,12.58
2018-09-10T01:28:30.660Z,12.81
2018-09-10T01:30:59.730Z,12.88
2018-09-10T01:33:28.789Z,12.92
2018-09-10T01:35:57.840Z,12.81
2018-09-10T01:38:26.900Z,12.77
2018-09-10T01:41:03.713Z,12.55
2018-09-10T01:46:08.480Z,12.56
2018-09-10T01:48:41.455Z,12.61
2018-09-10T01:51:10.511Z,12.47
2018-09-10T01:53:44.051Z,12.41
2018-09-10T01:58:48.817Z,12.38
2018-09-10T02:03:53.578Z,12.70
2018-09-10T02:06:23.562Z,12.80
2018-09-10T02:14:09.604Z,12.66
2018-09-10T02:16:38.720Z,12.60
2018-09-10T02:21:44.620Z,12.51
2018-09-10T02:26:52.392Z,12.61
2018-09-10T02:31:58.362Z,12.69
2018-09-10T02:37:03.129Z,12.73
2018-09-10T02:40:08.259Z,12.67
2018-09-10T02:42:38.250Z,12.48
2018-09-10T02:50:18.773Z,12.38
2018-09-10T02:52:47.862Z,12.23
2018-09-10T02:55:16.994Z,11.97
2018-09-10T02:57:45.968Z,11.81
2018-09-10T03:00:19.552Z,11.76
2018-09-10T03:02:48.594Z,11.73
2018-09-10T03:05:17.780Z,11.66
2018-09-10T03:07:48.807Z,11.65
2018-09-10T03:10:18.902Z,11.60
2018-09-10T03:12:48.933Z,11.56
2018-09-10T03:15:18.964Z,11.40
2018-09-10T03:20:23.737Z,11.44
2018-09-10T03:22:52.817Z,11.65
2018-09-10T03:25:21.885Z,11.89
2018-09-10T03:27:50.959Z,12.07
2018-09-10T03:30:20.021Z,12.26
2018-09-10T03:35:24.781Z,12.41
2018-09-10T03:37:57.273Z,12.43
2018-09-10T03:40:26.528Z,12.50
2018-09-10T03:42:55.632Z,12.44
2018-09-10T03:45:24.714Z,12.41
2018-09-10T03:47:53.757Z,12.36
2018-09-10T03:50:23.019Z,12.35
2018-09-10T03:52:53.052Z,12.34
2018-09-10T03:55:25.854Z,12.34
2018-09-10T03:57:54.921Z,12.31
2018-09-10T04:00:24.083Z,12.31
2018-09-10T04:02:53.134Z,12.27
2018-09-10T04:05:22.206Z,12.24
2018-09-10T04:07:51.274Z,12.22
2018-09-10T04:10:20.348Z,12.13
2018-09-10T04:15:25.614Z,12.16
2018-09-10T04:17:54.723Z,12.23
2018-09-10T04:20:23.789Z,12.08
2018-09-10T04:22:56.826Z,11.94
2018-09-10T04:25:26.806Z,11.82
2018-09-10T04:30:32.512Z,11.96
2018-09-10T04:33:01.577Z,12.07
2018-09-10T04:35:31.710Z,12.17
2018-09-10T04:38:02.642Z,12.14
2018-09-10T04:43:07.585Z,11.98
2018-09-10T04:45:36.638Z,11.91
2018-09-10T04:50:42.494Z,11.89
2018-09-10T04:53:13.512Z,11.84
2018-09-10T04:55:43.537Z,11.79
2018-09-10T05:00:49.526Z,11.79
2018-09-10T05:05:56.963Z,12.03
2018-09-10T05:11:01.797Z,11.88
2018-09-10T05:13:30.861Z,11.82
2018-09-10T05:16:03.865Z,11.61
2018-09-10T05:21:12.298Z,11.62
2018-09-10T05:23:43.342Z,11.65
2018-09-10T05:26:12.416Z,11.72
2018-09-10T05:28:45.629Z,11.66
2018-09-10T05:31:14.776Z,11.65
2018-09-10T05:36:19.764Z,11.89
2018-09-10T05:38:49.812Z,12.10
2018-09-10T05:43:54.583Z,12.30
2018-09-10T05:46:25.600Z,12.55
2018-09-10T05:49:07.444Z,12.67
2018-09-10T05:51:36.513Z,12.71
2018-09-10T05:54:05.591Z,12.75
2018-09-10T05:59:10.401Z,13.10
2018-09-10T06:01:39.665Z,13.31
2018-09-10T06:04:10.696Z,13.43
2018-09-10T06:06:45.344Z,13.60
2018-09-10T06:09:14.405Z,13.71
2018-09-10T06:14:19.191Z,13.90
2018-09-10T06:16:49.274Z,14.00
2018-09-10T06:19:19.261Z,14.11
2018-09-10T06:21:48.321Z,14.23
2018-09-10T06:24:18.321Z,14.38
2018-09-10T06:26:48.401Z,14.50
2018-09-10T06:29:17.464Z,14.60
2018-09-10T06:31:50.650Z,14.76
2018-09-10T06:34:20.664Z,14.83
2018-09-10T06:36:49.731Z,14.93
2018-09-10T06:39:18.788Z,15.05
2018-09-10T06:46:59.375Z,15.50
2018-09-10T06:49:28.461Z,15.65
2018-09-10T06:51:57.652Z,15.77
2018-09-10T06:57:02.418Z,16.07
2018-09-10T06:59:31.470Z,16.25
2018-09-10T07:02:00.492Z,16.38
2018-09-10T07:09:47.664Z,16.89
2018-09-10T07:12:18.697Z,17.00
2018-09-10T07:20:01.273Z,17.51
2018-09-10T07:22:33.509Z,17.70
2018-09-10T07:27:38.276Z,17.98
2018-09-10T07:30:07.336Z,18.12
2018-09-10T07:32:37.403Z,18.28
2018-09-10T07:37:42.157Z,18.55
2018-09-10T07:45:23.870Z,18.99
2018-09-10T07:47:52.909Z,19.01
2018-09-10T07:50:21.967Z,19.05
2018-09-10T07:52:51.026Z,19.24
2018-09-10T07:55:20.974Z,19.36
2018-09-10T07:57:50.066Z,19.50
2018-09-10T08:02:54.974Z,19.66
2018-09-10T08:05:32.270Z,19.66
2018-09-10T08:08:02.230Z,19.66
2018-09-10T08:10:31.290Z,19.70
2018-09-10T08:13:01.386Z,19.81
2018-09-10T08:15:34.337Z,20.01
2018-09-10T08:18:03.393Z,20.10
2018-09-10T08:20:33.366Z,20.07
2018-09-10T08:23:06.446Z,20.18
2018-09-10T08:25:36.400Z,20.24
2018-09-10T08:28:06.386Z,20.40
2018-09-10T08:30:35.481Z,20.61
2018-09-10T08:33:05.414Z,20.68
2018-09-10T08:35:34.676Z,20.82
2018-09-10T08:38:03.809Z,20.97
2018-09-10T08:40:34.856Z,21.27
2018-09-10T08:43:08.368Z,21.24
2018-09-10T08:45:37.425Z,21.38
2018-09-10T08:48:08.417Z,21.53
2018-09-10T08:50:37.447Z,21.90
2018-09-10T08:53:06.838Z,22.22
2018-09-10T08:58:11.682Z,24.50
2018-09-10T09:00:41.671Z,26.07
2018-09-10T09:03:11.691Z,26.24
2018-09-10T09:05:40.752Z,27.43
2018-09-10T09:08:09.804Z,28.16
2018-09-10T09:10:44.305Z,29.49
2018-09-10T09:15:51.228Z,29.82
2018-09-10T09:20:56.001Z,29.93
2018-09-10T09:23:25.125Z,30.12
2018-09-10T09:25:54.136Z,31.10
2018-09-10T09:28:23.223Z,32.77
2018-09-10T09:30:52.261Z,32.91
2018-09-10T09:33:22.305Z,31.45
2018-09-10T09:46:44.848Z,31.45
2018-09-10T09:49:13.921Z,30.08
2018-09-10T09:51:43.905Z,31.51
2018-09-10T09:54:13.942Z,31.39
2018-09-10T09:59:18.797Z,32.89
2018-09-10T10:01:47.907Z,32.87
2018-09-10T10:04:16.976Z,32.73
2018-09-10T10:06:49.782Z,33.53
2018-09-10T10:09:19.835Z,33.06
2018-09-10T10:11:49.003Z,35.38
2018-09-10T10:14:18.893Z,35.52
2018-09-10T10:16:47.963Z,35.84
2018-09-10T10:19:17.027Z,36.77
2018-09-10T10:21:46.089Z,36.03
2018-09-10T10:24:18.568Z,32.97
2018-09-10T10:26:48.599Z,32.80
2018-09-10T10:29:17.647Z,33.36
2018-09-10T10:31:46.695Z,32.89
2018-09-10T10:34:19.767Z,35.42
2018-09-10T10:36:48.844Z,37.36
2018-09-10T10:39:17.961Z,37.29
2018-09-10T10:41:46.949Z,37.25
2018-09-10T10:44:15.986Z,37.09
2018-09-10T10:46:45.045Z,37.50
2018-09-10T10:49:14.099Z,40.03
2018-09-10T10:51:45.113Z,40.87
2018-09-10T10:54:15.173Z,41.45
2018-09-10T10:59:22.341Z,41.63
2018-09-10T11:01:51.435Z,39.27
2018-09-10T11:04:20.593Z,39.92
2018-09-10T11:06:49.647Z,40.69
2018-09-10T11:09:18.696Z,42.21
2018-09-10T11:11:47.846Z,39.34
2018-09-10T11:14:17.930Z,41.91
2018-09-10T11:16:47.057Z,40.98
2018-09-10T11:19:16.035Z,42.74
2018-09-10T11:21:45.089Z,42.19
2018-09-10T11:26:50.839Z,42.69
2018-09-10T11:29:19.946Z,40.32
2018-09-10T11:31:49.008Z,38.47
2018-09-10T11:34:19.048Z,40.32
2018-09-10T11:36:48.096Z,37.19
2018-09-10T11:39:17.185Z,38.46
2018-09-10T11:41:48.178Z,36.86
2018-09-10T11:44:17.248Z,32.96
2018-09-10T11:46:46.301Z,34.38
2018-09-10T11:49:16.307Z,35.55
2018-09-10T11:51:46.467Z,36.20
2018-09-10T11:54:15.533Z,39.05
2018-09-10T11:56:48.221Z,40.56
2018-09-10T11:59:18.275Z,41.21
2018-09-10T12:01:49.366Z,38.45
2018-09-10T12:04:26.621Z,36.43
2018-09-10T12:06:57.614Z,37.22
2018-09-10T12:09:26.673Z,36.41
2018-09-10T12:11:57.705Z,35.19
2018-09-10T12:14:26.762Z,33.06
2018-09-10T12:16:55.929Z,32.00
2018-09-10T12:19:25.022Z,30.80
2018-09-10T12:21:54.084Z,30.24
2018-09-10T12:24:23.125Z,31.17
2018-09-10T12:26:52.284Z,33.97
2018-09-10T12:32:08.778Z,34.32
2018-09-10T12:34:42.581Z,31.61
2018-09-10T12:37:11.628Z,32.38
2018-09-10T12:39:40.760Z,32.10
2018-09-10T12:42:09.745Z,32.23
2018-09-10T12:44:38.797Z,33.09
2018-09-10T12:49:44.653Z,33.54
2018-09-10T12:52:15.615Z,33.98
2018-09-10T12:54:45.604Z,30.35
2018-09-10T12:57:15.631Z,29.33
2018-09-10T12:59:44.721Z,29.68
2018-09-10T13:02:14.744Z,29.56
2018-09-10T13:04:43.798Z,29.39
2018-09-10T13:07:12.849Z,29.79
2018-09-10T13:09:41.912Z,30.50
2018-09-10T13:12:10.992Z,30.79
2018-09-10T13:14:40.065Z,30.57
2018-09-10T13:17:12.209Z,30.05
2018-09-10T13:19:41.507Z,30.02
2018-09-10T13:22:10.546Z,29.37
2018-09-10T13:24:39.616Z,29.93
2018-09-10T13:27:08.668Z,31.90
2018-09-10T13:29:40.911Z,32.08
2018-09-10T13:32:09.936Z,32.79
2018-09-10T13:34:39.917Z,32.10
2018-09-10T13:37:12.230Z,31.27
2018-09-10T13:39:41.421Z,29.57
2018-09-10T13:42:12.443Z,29.14
2018-09-10T13:44:42.476Z,30.28
2018-09-10T13:47:11.552Z,28.70
2018-09-10T13:49:40.597Z,29.78
2018-09-10T13:52:09.650Z,30.90
2018-09-10T13:54:44.856Z,31.44
2018-09-10T13:57:13.886Z,30.65
2018-09-10T13:59:51.477Z,30.82
2018-09-10T14:02:22.517Z,30.57
2018-09-10T14:04:52.588Z,30.14
2018-09-10T14:07:21.674Z,30.82
2018-09-10T14:09:51.642Z,30.91
2018-09-10T14:12:20.710Z,31.68
2018-09-10T14:14:49.756Z,33.18
2018-09-10T14:17:22.613Z,34.16
2018-09-10T14:19:53.566Z,36.30
2018-09-10T14:22:26.253Z,38.45
2018-09-10T14:24:57.315Z,38.90
2018-09-10T14:27:26.437Z,38.81
2018-09-10T14:29:55.429Z,33.99
2018-09-10T14:32:24.561Z,35.04
2018-09-10T14:34:53.692Z,33.97
2018-09-10T14:37:23.739Z,33.50
2018-09-10T14:39:53.735Z,34.42
2018-09-10T14:42:22.787Z,36.24
2018-09-10T14:44:51.850Z,34.31
2018-09-10T14:47:21.867Z,32.20
2018-09-10T14:49:50.917Z,31.45
2018-09-10T14:52:20.714Z,33.70
2018-09-10T14:54:49.776Z,35.42
2018-09-10T14:57:19.798Z,35.67
2018-09-10T14:59:48.865Z,35.48
2018-09-10T15:02:17.910Z,36.59
2018-09-10T15:04:46.971Z,34.94
2018-09-10T15:07:16.018Z,31.60
2018-09-10T15:09:45.155Z,29.91
2018-09-10T15:14:49.987Z,29.93
2018-09-10T15:19:56.738Z,31.22
2018-09-10T15:22:25.772Z,32.27
2018-09-10T15:25:00.045Z,33.02
2018-09-10T15:27:30.072Z,34.01
2018-09-10T15:29:59.120Z,33.30
2018-09-10T15:35:03.972Z,31.28
2018-09-10T15:37:33.078Z,31.19
2018-09-10T15:40:02.138Z,30.83
2018-09-10T15:42:31.193Z,31.02
2018-09-10T15:45:00.308Z,30.29
2018-09-10T15:47:30.346Z,29.80
2018-09-10T15:50:03.233Z,29.31
2018-09-10T15:52:32.284Z,29.72
2018-09-10T15:57:37.169Z,30.55
2018-09-10T16:00:08.172Z,30.42
2018-09-10T16:02:37.203Z,29.70
2018-09-10T16:05:06.282Z,29.29
2018-09-10T16:07:35.349Z,29.07
2018-09-10T16:10:04.440Z,28.67
2018-09-10T16:12:33.469Z,28.22
2018-09-10T16:17:39.293Z,28.07
2018-09-10T16:20:08.337Z,28.05
2018-09-10T16:25:15.193Z,27.63
2018-09-10T16:27:44.310Z,27.64
2018-09-10T16:30:15.260Z,27.17
2018-09-10T16:32:48.323Z,26.85
2018-09-10T16:35:17.492Z,26.59
2018-09-10T16:37:46.575Z,26.39
2018-09-10T16:40:15.638Z,26.31
2018-09-10T16:42:47.985Z,26.19
2018-09-10T16:45:17.042Z,25.76
2018-09-10T16:47:48.074Z,25.53
2018-09-10T16:50:18.077Z,25.43
2018-09-10T16:52:47.114Z,25.19
2018-09-10T16:55:16.165Z,24.96
2018-09-10T16:57:47.120Z,24.87
2018-09-10T17:00:16.163Z,24.75
2018-09-10T17:05:20.974Z,24.25
2018-09-10T17:07:50.036Z,23.85
2018-09-10T17:10:19.091Z,23.56
2018-09-10T17:12:48.151Z,23.30
2018-09-10T17:17:53.036Z,23.21
2018-09-10T17:20:22.096Z,23.17
2018-09-10T17:22:51.215Z,22.75
2018-09-10T17:25:20.195Z,22.35
2018-09-10T17:27:49.246Z,21.80
2018-09-10T17:30:20.308Z,21.62
2018-09-10T17:35:26.116Z,21.50
2018-09-10T17:40:31.001Z,21.16
2018-09-10T17:43:01.009Z,21.05
2018-09-10T17:45:30.995Z,20.72
2018-09-10T17:48:08.808Z,20.56
2018-09-10T17:50:38.854Z,20.45
2018-09-10T17:53:07.880Z,20.05
2018-09-10T17:55:36.922Z,20.09
2018-09-10T17:58:07.974Z,19.91
2018-09-10T18:00:37.086Z,19.68
2018-09-10T18:03:06.077Z,19.71
2018-09-10T18:05:36.072Z,19.87
2018-09-10T18:08:06.096Z,19.77
2018-09-10T18:10:35.140Z,19.41
2018-09-10T18:13:06.166Z,19.19
2018-09-10T18:15:37.218Z,19.11
2018-09-10T18:18:08.261Z,19.10
2018-09-10T18:20:37.360Z,19.01
2018-09-10T18:23:06.391Z,18.96
2018-09-10T18:25:35.449Z,18.90
2018-09-10T18:28:04.535Z,18.87
2018-09-10T18:30:39.044Z,18.89
2018-09-10T18:33:08.128Z,18.73
2018-09-10T18:35:38.179Z,18.40
2018-09-10T18:38:07.229Z,18.30
2018-09-10T18:40:36.282Z,18.29
2018-09-10T18:43:06.284Z,18.28
2018-09-10T18:45:35.441Z,18.28
2018-09-10T18:48:04.485Z,18.20
2018-09-10T18:50:33.597Z,18.12
2018-09-10T18:58:17.561Z,18.36
2018-09-10T19:00:46.633Z,18.30
2018-09-10T19:05:55.425Z,18.14
2018-09-10T19:08:24.513Z,18.21
2018-09-10T19:10:55.546Z,18.17
2018-09-10T19:13:24.586Z,18.09
2018-09-10T19:15:55.604Z,18.02
2018-09-10T19:18:24.644Z,17.96
2018-09-10T19:20:53.890Z,17.94
2018-09-10T19:28:35.517Z,17.78
2018-09-10T19:31:04.560Z,17.65
2018-09-10T19:33:33.601Z,17.56
2018-09-10T19:36:02.669Z,17.52
2018-09-10T19:38:31.722Z,17.51
2018-09-10T19:41:01.728Z,17.55
2018-09-10T19:46:06.503Z,17.58
2018-09-10T19:48:37.516Z,17.55
2018-09-10T19:53:42.298Z,17.30
2018-09-10T19:56:13.316Z,17.30
2018-09-10T20:01:18.091Z,17.20
2018-09-10T20:03:49.112Z,17.12
2018-09-10T20:06:18.253Z,17.12
2018-09-10T20:08:47.305Z,17.05
2018-09-10T20:13:53.098Z,17.07
2018-09-10T20:16:25.567Z,17.17
2018-09-10T20:18:54.648Z,17.05
2018-09-10T20:21:23.736Z,17.01
2018-09-10T20:23:52.833Z,16.93
2018-09-10T20:26:22.888Z,16.93
2018-09-10T20:28:51.987Z,16.89
2018-09-10T20:31:21.017Z,16.80
2018-09-10T20:33:50.053Z,16.72
2018-09-10T20:36:19.106Z,16.66
2018-09-10T20:38:48.213Z,16.43
2018-09-10T20:41:17.251Z,16.25
2018-09-10T20:43:46.288Z,16.29
2018-09-10T20:46:17.304Z,16.38
2018-09-10T20:48:46.356Z,16.29
2018-09-10T20:51:15.401Z,16.28
2018-09-10T20:53:45.433Z,16.35
2018-09-10T21:01:26.091Z,16.48
2018-09-10T21:03:55.117Z,16.55
2018-09-10T21:06:25.153Z,16.57
2018-09-10T21:11:29.931Z,16.31
2018-09-10T21:13:58.986Z,16.40
2018-09-10T21:16:29.953Z,16.43
2018-09-10T21:18:59.030Z,16.30
2018-09-10T21:21:28.153Z,16.33
2018-09-10T21:23:57.209Z,16.39
2018-09-10T21:26:26.240Z,16.41
2018-09-10T21:31:31.517Z,16.47
2018-09-10T21:36:36.302Z,16.32
2018-09-10T21:39:05.373Z,16.29
2018-09-10T21:41:35.368Z,16.13
2018-09-10T21:49:15.993Z,15.79
2018-09-10T21:54:20.748Z,15.66
2018-09-10T21:56:49.822Z,15.64
2018-09-10T21:59:18.874Z,15.58
2018-09-10T22:01:47.927Z,15.40
2018-09-10T22:06:52.692Z,15.58
2018-09-10T22:11:57.544Z,15.64
2018-09-10T22:19:38.153Z,15.72
2018-09-10T22:22:07.188Z,15.65
2018-09-10T22:24:36.283Z,15.60
2018-09-10T22:27:05.281Z,15.57
2018-09-10T22:29:34.324Z,15.51
2018-09-10T22:34:39.089Z,15.34
2018-09-10T22:37:10.104Z,15.33
2018-09-10T22:39:39.156Z,15.28
2018-09-10T22:42:08.204Z,15.26
2018-09-10T22:44:38.235Z,15.29
2018-09-10T22:49:44.005Z,15.43
2018-09-10T22:54:49.773Z,15.26
2018-09-10T22:59:54.564Z,15.20
2018-09-10T23:02:23.591Z,15.13
2018-09-10T23:04:52.626Z,15.17
2018-09-10T23:09:57.388Z,15.25
2018-09-10T23:12:26.420Z,15.33
2018-09-10T23:14:55.496Z,15.24
2018-09-10T23:17:24.533Z,15.15
2018-09-10T23:19:53.578Z,15.10
2018-09-10T23:22:22.636Z,15.03
2018-09-10T23:24:51.687Z,14.98
2018-09-10T23:27:21.690Z,14.98
2018-09-10T23:35:02.199Z,15.17
2018-09-10T23:37:31.259Z,15.28
2018-09-10T23:40:00.300Z,15.20
2018-09-10T23:42:29.356Z,15.27
2018-09-10T23:44:58.405Z,15.26
2018-09-10T23:47:27.442Z,15.19
2018-09-10T23:49:56.512Z,15.18
2018-09-10T23:52:26.492Z,15.24
2018-09-10T23:54:55.566Z,15.33
2018-09-10T23:57:24.600Z,15.31
2018-09-10T23:59:53.643Z,15.32
